Versailles, IN (47042)

8:51 AM EDT on September 04, 2015 (GMT -0400)
APRSWXNET | | Change Station
CLOSE
Current Station
Personal Weather Station
Location: Versailles, IN
Elevation: 961 ft
Nearby Weather Stations

Elev 961 ft 39.07 °N, 85.25 °W | Updated 23 minutes ago

Partly Cloudy
Partly Cloudy
69 °F
Feels Like 69 °F
N
0
Wind Variable Wind from West
Gusts 0.0 mph

Today
High -- | Low -- °F
--% Chance of Precip.
Yesterday
High -- | Low -- °F
Precip. -- in
7:12 AM 8:07 PM
Waning Gibbous, 60% visible
Pressure 30.01 in
Visibility 6.0 miles
Clouds Scattered Clouds 30000 ft
Dew Point 68 °F
Humidity 97%
Rainfall in
Snow Depth Not available.
UV 0 out of 12
Pollen 9.90 out of 12
Air Quality Not available.
Flu Activity Not available.
METAR KCVG 041152Z 00000KT 6SM BR SCT300 20/19 A3004 RMK AO2 SLP162 PTCHY MIFG S SW T02000194 10222 20189 53011
Pressure 30.01 in
Visibility 6.0 miles
Clouds Scattered Clouds 30000 ft
Dew Point 68 °F
Humidity 97%
Rainfall in
Snow Depth Not available.
UV 0 out of 12
Pollen 9.90 out of 12
Air Quality Not available.
Flu Activity Not available.
METAR KCVG 041152Z 00000KT 6SM BR SCT300 20/19 A3004 RMK AO2 SLP162 PTCHY MIFG S SW T02000194 10222 20189 53011

10-Day Weather Forecast

×

Almanac

Astronomy

Sep. 04, 2015 Rise Set
Actual Time
Civil Twilight
Nautical Twilight
Astronomical Twilight
Moon
Length of Visible Light
Length of Day
Tomorrow will be .
, % of the Moon is Illuminated

Today's Extremes

State Highs State Lows

Community

WunderPhotos

Upload Photos

1,852,174 photos uploaded!

WunderBlogs® & News

Nearby

Air Quality

  Air Quality AQ Index Pollutant
Not available.

Snow Depth

Station Depth Elevation

Earthquake Activity

City Distance Mag. Time & Date
Minimum magnitude displayed is 2.5.

Coastal Water Temperatures

Place Temperature

Stations

Nearby Weather Stations

Station Location Temp. Windchill Dew Point Humidity Wind Precip. Elev Updated Type